createdAt,value
2019-03-24T00:01:27.861Z,49.97
2019-03-24T00:03:56.308Z,49.23
2019-03-24T00:06:24.775Z,49.20
2019-03-24T00:08:53.235Z,42.13
2019-03-24T00:11:21.681Z,43.33
2019-03-24T00:13:50.142Z,45.63
2019-03-24T00:16:18.610Z,45.47
2019-03-24T00:18:47.037Z,44.17
2019-03-24T00:21:15.491Z,44.50
2019-03-24T00:23:44.042Z,37.97
2019-03-24T00:26:12.494Z,39.07
2019-03-24T00:28:40.945Z,39.27
2019-03-24T00:31:09.388Z,31.50
2019-03-24T00:33:37.869Z,33.90
2019-03-24T00:36:06.307Z,30.87
2019-03-24T00:38:34.775Z,30.57
2019-03-24T00:41:03.205Z,30.43
2019-03-24T00:43:31.649Z,32.83
2019-03-24T00:46:00.348Z,32.37
2019-03-24T00:48:28.853Z,30.87
2019-03-24T00:50:57.288Z,29.43
2019-03-24T00:53:25.747Z,30.20
2019-03-24T00:55:54.288Z,27.37
2019-03-24T00:58:22.771Z,28.37
2019-03-24T01:00:52.001Z,27.23
2019-03-24T01:03:20.424Z,25.33
2019-03-24T01:05:48.889Z,21.87
2019-03-24T01:08:17.412Z,21.27
2019-03-24T01:10:45.867Z,19.57
2019-03-24T01:13:15.050Z,17.83
2019-03-24T01:15:48.010Z,16.30
2019-03-24T01:18:15.072Z,13.13
2019-03-24T01:20:44.219Z,21.13
2019-03-24T01:23:12.660Z,17.37
2019-03-24T01:25:41.102Z,11.53
2019-03-24T01:28:09.548Z,15.90
2019-03-24T01:30:37.985Z,19.73
2019-03-24T01:33:06.429Z,16.53
2019-03-24T01:35:34.866Z,16.37
2019-03-24T01:38:03.330Z,15.70
2019-03-24T01:40:31.744Z,23.63
2019-03-24T01:43:00.214Z,21.07
2019-03-24T01:45:28.655Z,17.43
2019-03-24T01:47:57.089Z,23.93
2019-03-24T01:50:25.545Z,20.40
2019-03-24T01:52:53.960Z,21.73
2019-03-24T01:55:22.423Z,21.00
2019-03-24T01:57:50.849Z,17.87
2019-03-24T02:00:19.287Z,18.37
2019-03-24T02:02:47.732Z,15.60
2019-03-24T02:05:16.188Z,15.20
2019-03-24T02:07:44.627Z,14.97
2019-03-24T02:10:13.524Z,17.23
2019-03-24T02:12:42.055Z,15.13
2019-03-24T02:15:10.836Z,17.13
2019-03-24T02:17:39.272Z,14.87
2019-03-24T02:20:08.069Z,22.17
2019-03-24T02:22:36.508Z,17.23
2019-03-24T02:25:06.685Z,17.53
2019-03-24T02:27:35.129Z,18.50
2019-03-24T02:30:05.190Z,17.07
2019-03-24T02:32:33.689Z,17.40
2019-03-24T02:35:02.131Z,20.50
2019-03-24T02:37:30.644Z,16.60
2019-03-24T02:39:59.089Z,17.43
2019-03-24T02:42:27.544Z,17.10
2019-03-24T02:44:56.003Z,16.23
2019-03-24T02:47:24.445Z,18.80
2019-03-24T02:49:52.924Z,20.97
2019-03-24T02:52:21.435Z,17.80
2019-03-24T02:54:49.916Z,18.57
2019-03-24T02:57:18.347Z,18.30
2019-03-24T02:59:46.813Z,19.53
2019-03-24T03:02:15.233Z,17.80
2019-03-24T03:04:44.419Z,16.07
2019-03-24T03:07:12.839Z,15.30
2019-03-24T03:09:41.284Z,17.57
2019-03-24T03:12:09.732Z,17.53
2019-03-24T03:14:38.182Z,16.00
2019-03-24T03:17:06.616Z,12.80
2019-03-24T03:19:35.062Z,16.77
2019-03-24T03:22:03.502Z,14.73
2019-03-24T03:24:31.954Z,15.93
2019-03-24T03:27:00.420Z,21.30
2019-03-24T03:29:28.949Z,13.30
2019-03-24T03:31:57.377Z,22.00
2019-03-24T03:34:25.912Z,15.17
2019-03-24T03:36:54.500Z,15.77
2019-03-24T03:39:22.941Z,20.17
2019-03-24T03:41:51.441Z,19.03
2019-03-24T03:44:20.012Z,18.77
2019-03-24T03:46:52.753Z,17.00
2019-03-24T03:49:18.637Z,15.60
2019-03-24T03:51:47.087Z,21.40
2019-03-24T03:54:15.601Z,15.17
2019-03-24T03:56:44.561Z,23.77
2019-03-24T03:59:13.033Z,18.40
2019-03-24T04:01:41.485Z,15.90
2019-03-24T04:04:09.946Z,18.83
2019-03-24T04:06:38.368Z,16.50
2019-03-24T04:09:06.966Z,19.47
2019-03-24T04:11:35.410Z,18.10
2019-03-24T04:14:03.918Z,22.07
2019-03-24T04:16:32.359Z,22.43
2019-03-24T04:19:00.797Z,21.37
2019-03-24T04:21:29.242Z,25.97
2019-03-24T04:23:57.738Z,20.43
2019-03-24T04:26:26.210Z,15.17
2019-03-24T04:28:54.634Z,19.97
2019-03-24T04:31:23.100Z,17.27
2019-03-24T04:33:51.529Z,23.07
2019-03-24T04:36:19.991Z,18.73
2019-03-24T04:38:48.431Z,18.37
2019-03-24T04:41:16.889Z,19.13
2019-03-24T04:43:45.316Z,24.37
2019-03-24T04:46:14.681Z,16.10
2019-03-24T04:48:43.119Z,18.43
2019-03-24T04:51:11.564Z,14.37
2019-03-24T04:53:40.004Z,22.37
2019-03-24T04:56:08.471Z,19.10
2019-03-24T04:58:36.896Z,18.23
2019-03-24T05:01:05.360Z,21.50
2019-03-24T05:03:33.768Z,26.23
2019-03-24T05:06:02.219Z,21.47
2019-03-24T05:08:30.669Z,17.47
2019-03-24T05:10:59.108Z,17.20
2019-03-24T05:13:27.543Z,19.20
2019-03-24T05:15:56.012Z,16.57
2019-03-24T05:18:24.459Z,24.03
2019-03-24T05:20:52.975Z,17.25
2019-03-24T05:23:21.423Z,18.07
2019-03-24T05:25:49.868Z,19.90
2019-03-24T05:28:18.312Z,22.30
2019-03-24T05:30:46.775Z,22.53
2019-03-24T05:33:15.223Z,22.67
2019-03-24T05:35:43.649Z,24.10
2019-03-24T05:38:12.089Z,21.40
2019-03-24T05:40:40.619Z,25.30
2019-03-24T05:43:09.073Z,20.50
2019-03-24T05:45:37.521Z,22.20
2019-03-24T05:48:05.945Z,20.93
2019-03-24T05:50:34.392Z,20.80
2019-03-24T05:53:02.857Z,19.33
2019-03-24T05:55:31.306Z,21.67
2019-03-24T05:57:59.736Z,20.47
2019-03-24T06:00:28.206Z,23.60
2019-03-24T06:02:57.382Z,20.57
2019-03-24T06:05:25.985Z,29.00
2019-03-24T06:07:54.484Z,27.98
2019-03-24T06:10:22.931Z,22.27
2019-03-24T06:12:51.370Z,19.00
2019-03-24T06:15:19.836Z,24.47
2019-03-24T06:17:48.283Z,21.83
2019-03-24T06:20:16.776Z,21.70
2019-03-24T06:22:45.217Z,18.93
2019-03-24T06:25:13.721Z,20.73
2019-03-24T06:27:42.241Z,21.20
2019-03-24T06:30:10.952Z,24.83
2019-03-24T06:32:39.407Z,22.27
2019-03-24T06:35:07.994Z,23.73
2019-03-24T06:37:36.533Z,19.17
2019-03-24T06:40:06.402Z,31.93
2019-03-24T06:42:34.845Z,19.87
2019-03-24T06:45:04.139Z,17.53
2019-03-24T06:47:32.596Z,25.53
2019-03-24T06:50:01.025Z,24.00
2019-03-24T06:52:29.560Z,23.13
2019-03-24T06:54:57.999Z,21.77
2019-03-24T06:57:26.433Z,15.23
2019-03-24T06:59:54.892Z,25.83
2019-03-24T07:02:24.132Z,27.33
2019-03-24T07:04:52.632Z,24.30
2019-03-24T07:07:21.076Z,20.93
2019-03-24T07:09:49.529Z,22.57
2019-03-24T07:12:17.971Z,19.73
2019-03-24T07:14:47.303Z,26.83
2019-03-24T07:17:15.732Z,18.87
2019-03-24T07:19:44.992Z,25.03
2019-03-24T07:22:13.434Z,20.20
2019-03-24T07:24:41.931Z,18.60
2019-03-24T07:27:10.387Z,19.73
2019-03-24T07:29:41.078Z,24.43
2019-03-24T07:32:09.022Z,25.33
2019-03-24T07:34:37.467Z,31.13
2019-03-24T07:37:05.931Z,23.50
2019-03-24T07:39:34.365Z,22.80
2019-03-24T07:42:02.823Z,19.73
2019-03-24T07:44:31.268Z,22.20
2019-03-24T07:46:59.692Z,18.93
2019-03-24T07:49:28.163Z,22.97
2019-03-24T07:51:56.621Z,23.67
2019-03-24T07:54:25.077Z,19.47
2019-03-24T07:56:53.504Z,18.67
2019-03-24T07:59:21.973Z,21.63
2019-03-24T08:01:50.403Z,15.33
2019-03-24T08:04:18.856Z,16.47
2019-03-24T08:06:47.286Z,18.43
2019-03-24T08:09:15.758Z,14.90
2019-03-24T08:11:45.120Z,22.53
2019-03-24T08:14:13.569Z,22.70
2019-03-24T08:16:42.011Z,21.70
2019-03-24T08:19:10.477Z,20.60
2019-03-24T08:21:38.906Z,20.90
2019-03-24T08:24:07.366Z,20.17
2019-03-24T08:26:35.848Z,19.23
2019-03-24T08:29:04.791Z,17.43
2019-03-24T08:31:33.223Z,16.83
2019-03-24T08:34:01.688Z,19.67
2019-03-24T08:36:30.139Z,17.87
2019-03-24T08:38:58.585Z,21.57
2019-03-24T08:41:27.025Z,17.87
2019-03-24T08:43:55.464Z,14.10
2019-03-24T08:46:23.935Z,18.33
2019-03-24T08:48:52.360Z,15.73
2019-03-24T08:51:20.827Z,15.17
2019-03-24T08:53:49.275Z,19.13
2019-03-24T08:56:17.747Z,12.03
2019-03-24T08:58:46.193Z,16.90
2019-03-24T09:01:15.267Z,16.70
2019-03-24T09:03:43.777Z,16.37
2019-03-24T09:06:12.340Z,17.27
2019-03-24T09:08:40.778Z,13.33
2019-03-24T09:11:09.233Z,13.93
2019-03-24T09:13:37.669Z,16.57
2019-03-24T09:16:06.119Z,15.43
2019-03-24T09:18:34.554Z,16.07
2019-03-24T09:21:02.982Z,19.17
2019-03-24T09:23:31.459Z,15.70
2019-03-24T09:25:59.936Z,17.13
2019-03-24T09:28:28.474Z,16.90
2019-03-24T09:30:56.916Z,17.93
2019-03-24T09:33:25.440Z,15.53
2019-03-24T09:35:53.934Z,15.50
2019-03-24T09:38:22.441Z,17.33
2019-03-24T09:40:50.893Z,16.80
2019-03-24T09:43:19.342Z,17.13
2019-03-24T09:45:47.783Z,17.23
2019-03-24T09:48:16.278Z,12.13
2019-03-24T09:50:45.296Z,14.87
2019-03-24T09:53:13.739Z,15.93
2019-03-24T09:55:42.193Z,14.30
2019-03-24T09:58:10.939Z,13.00
2019-03-24T10:00:39.408Z,17.00
2019-03-24T10:03:07.861Z,15.07
2019-03-24T10:05:55.654Z,14.00
2019-03-24T10:08:24.167Z,17.20
2019-03-24T10:10:52.690Z,16.57
2019-03-24T10:13:21.135Z,13.33
2019-03-24T10:15:49.676Z,12.40
2019-03-24T10:18:18.110Z,16.30
2019-03-24T10:20:46.564Z,15.50
2019-03-24T10:23:15.477Z,13.30
2019-03-24T10:25:43.972Z,15.17
2019-03-24T10:28:12.420Z,16.70
2019-03-24T10:30:40.899Z,12.80
2019-03-24T10:33:09.405Z,14.50
2019-03-24T10:35:37.901Z,14.77
2019-03-24T10:38:06.357Z,11.70
2019-03-24T10:40:34.826Z,14.50
2019-03-24T10:43:03.253Z,13.20
2019-03-24T10:45:31.707Z,15.47
2019-03-24T10:48:00.154Z,10.80
2019-03-24T10:50:28.584Z,14.87
2019-03-24T10:52:57.054Z,14.13
2019-03-24T10:55:25.547Z,12.73
2019-03-24T10:57:53.988Z,12.27
2019-03-24T11:00:36.796Z,12.13
2019-03-24T11:03:05.889Z,21.47
2019-03-24T11:05:34.385Z,14.47
2019-03-24T11:08:02.855Z,12.13
2019-03-24T11:10:31.301Z,13.30
2019-03-24T11:12:59.776Z,10.37
2019-03-24T11:15:28.253Z,10.40
2019-03-24T11:17:56.694Z,12.93
2019-03-24T11:20:25.147Z,18.53
2019-03-24T11:22:53.665Z,13.37
2019-03-24T11:25:22.187Z,11.60
2019-03-24T11:27:50.640Z,10.30
2019-03-24T11:30:19.135Z,12.03
2019-03-24T11:32:47.572Z,10.13
2019-03-24T11:35:16.034Z,16.37
2019-03-24T11:37:45.382Z,14.87
2019-03-24T11:40:13.925Z,16.33
2019-03-24T11:42:42.367Z,34.93
2019-03-24T11:45:12.825Z,58.47
2019-03-24T11:47:41.276Z,85.53
2019-03-24T11:50:10.164Z,54.80
2019-03-24T11:52:38.597Z,16.70
2019-03-24T11:55:08.204Z,20.30
2019-03-24T11:57:36.768Z,16.23
2019-03-24T12:00:14.088Z,12.40
2019-03-24T12:02:42.509Z,9.30
2019-03-24T12:05:11.402Z,8.63
2019-03-24T12:07:39.916Z,10.80
2019-03-24T12:10:09.372Z,13.00
2019-03-24T12:12:38.012Z,11.17
2019-03-24T12:15:07.709Z,11.23
2019-03-24T12:17:36.178Z,15.50
2019-03-24T12:20:06.855Z,10.00
2019-03-24T12:22:35.433Z,12.50
2019-03-24T12:25:04.977Z,9.70
2019-03-24T12:27:33.535Z,8.57
2019-03-24T12:30:02.241Z,10.47
2019-03-24T12:32:30.718Z,12.33
2019-03-24T12:34:59.199Z,14.47
2019-03-24T12:37:27.636Z,9.17
2019-03-24T12:39:57.988Z,13.73
2019-03-24T12:42:26.481Z,13.23
2019-03-24T12:44:55.127Z,11.43
2019-03-24T12:47:23.580Z,14.10
2019-03-24T12:49:52.036Z,11.47
2019-03-24T12:52:20.479Z,10.97
2019-03-24T12:54:48.930Z,12.47
2019-03-24T12:57:17.384Z,28.93
2019-03-24T12:59:45.816Z,11.23
2019-03-24T13:02:14.284Z,11.87
2019-03-24T13:04:42.718Z,15.00
2019-03-24T13:07:11.180Z,20.67
2019-03-24T13:09:39.650Z,13.70
2019-03-24T13:12:08.158Z,11.37
2019-03-24T13:14:36.609Z,8.83
2019-03-24T13:17:05.147Z,17.10
2019-03-24T13:19:35.954Z,15.90
2019-03-24T13:22:03.786Z,14.47
2019-03-24T13:24:32.317Z,11.13
2019-03-24T13:27:00.869Z,11.53
2019-03-24T13:29:29.359Z,13.20
2019-03-24T13:31:57.868Z,23.20
2019-03-24T13:34:26.480Z,11.03
2019-03-24T13:36:54.975Z,14.23
2019-03-24T13:39:23.507Z,10.93
2019-03-24T13:41:52.175Z,10.27
2019-03-24T13:44:20.672Z,10.00
2019-03-24T13:46:49.120Z,11.47
2019-03-24T13:49:17.689Z,8.20
2019-03-24T13:51:46.261Z,14.23
2019-03-24T13:54:14.804Z,12.77
2019-03-24T13:56:43.365Z,11.53
2019-03-24T13:59:11.808Z,14.17
2019-03-24T14:01:40.252Z,16.90
2019-03-24T14:04:08.716Z,27.97
2019-03-24T14:06:37.159Z,11.03
2019-03-24T14:09:08.559Z,11.93
2019-03-24T14:11:37.053Z,9.73
2019-03-24T14:14:05.547Z,11.23
2019-03-24T14:16:33.987Z,9.67
2019-03-24T14:19:02.431Z,12.83
2019-03-24T14:21:30.867Z,12.70
2019-03-24T14:23:59.345Z,9.70
2019-03-24T14:26:27.791Z,6.47
2019-03-24T14:28:56.300Z,12.17
2019-03-24T14:31:24.772Z,10.83
2019-03-24T14:33:53.324Z,8.57
2019-03-24T14:36:21.792Z,9.93
2019-03-24T14:38:50.255Z,11.00
2019-03-24T14:41:18.711Z,12.27
2019-03-24T14:43:47.235Z,9.50
2019-03-24T14:46:16.038Z,8.43
2019-03-24T14:48:44.548Z,8.83
2019-03-24T14:51:13.035Z,12.00
2019-03-24T14:53:41.522Z,11.27
2019-03-24T14:56:09.944Z,8.37
2019-03-24T14:58:38.407Z,10.47
2019-03-24T15:01:06.877Z,12.13
2019-03-24T15:03:35.404Z,15.17
2019-03-24T15:06:03.911Z,9.07
2019-03-24T15:08:32.371Z,10.33
2019-03-24T15:11:00.883Z,8.33
2019-03-24T15:13:29.322Z,10.80
2019-03-24T15:15:57.789Z,9.93
2019-03-24T15:18:26.217Z,6.43
2019-03-24T15:21:04.962Z,9.80
2019-03-24T15:23:24.893Z,8.67
2019-03-24T15:25:53.360Z,9.30
2019-03-24T15:28:21.783Z,9.87
2019-03-24T15:30:50.229Z,9.17
2019-03-24T15:33:18.656Z,8.00
2019-03-24T15:35:47.202Z,8.47
2019-03-24T15:38:16.124Z,8.63
2019-03-24T15:40:44.656Z,6.63
2019-03-24T15:43:13.088Z,8.90
2019-03-24T15:45:41.503Z,9.07
2019-03-24T15:48:09.995Z,9.57
2019-03-24T15:50:38.464Z,8.97
2019-03-24T15:53:06.922Z,9.20
2019-03-24T15:55:35.364Z,11.63
2019-03-24T15:58:03.887Z,7.97
2019-03-24T16:00:43.683Z,7.73
2019-03-24T16:03:12.297Z,11.60
2019-03-24T16:05:40.740Z,13.40
2019-03-24T16:08:09.212Z,7.83
2019-03-24T16:10:37.647Z,10.70
2019-03-24T16:13:06.090Z,10.07
2019-03-24T16:15:34.546Z,9.00
2019-03-24T16:18:02.987Z,9.40
2019-03-24T16:20:31.446Z,9.73
2019-03-24T16:22:59.884Z,6.40
2019-03-24T16:25:28.350Z,7.93
2019-03-24T16:27:56.775Z,7.27
2019-03-24T16:30:25.220Z,13.93
2019-03-24T16:32:53.667Z,7.70
2019-03-24T16:35:22.118Z,8.40
2019-03-24T16:37:50.545Z,9.53
2019-03-24T16:40:19.005Z,10.40
2019-03-24T16:42:47.428Z,11.67
2019-03-24T16:45:16.305Z,12.50
2019-03-24T16:47:44.726Z,8.57
2019-03-24T16:50:13.187Z,7.17
2019-03-24T16:52:41.626Z,13.97
2019-03-24T16:55:12.163Z,7.50
2019-03-24T16:57:40.385Z,7.97
2019-03-24T17:00:09.444Z,7.40
2019-03-24T17:02:37.963Z,11.80
2019-03-24T17:05:08.534Z,8.90
2019-03-24T17:07:36.986Z,10.03
2019-03-24T17:10:06.860Z,7.90
2019-03-24T17:12:35.482Z,14.23
2019-03-24T17:15:06.239Z,12.03
2019-03-24T17:17:34.717Z,12.67
2019-03-24T17:20:04.286Z,10.93
2019-03-24T17:22:32.822Z,11.63
2019-03-24T17:25:01.254Z,8.37
2019-03-24T17:27:29.696Z,10.27
2019-03-24T17:29:58.118Z,7.17
2019-03-24T17:32:26.579Z,7.30
2019-03-24T17:34:54.998Z,9.07
2019-03-24T17:37:23.459Z,9.53
2019-03-24T17:39:51.897Z,10.63
2019-03-24T17:42:20.350Z,9.73
2019-03-24T17:44:48.806Z,9.53
2019-03-24T17:47:17.241Z,8.47
2019-03-24T17:49:46.404Z,13.30
2019-03-24T17:52:14.881Z,12.37
2019-03-24T17:54:43.324Z,10.43
2019-03-24T17:57:11.764Z,8.33
2019-03-24T17:59:40.236Z,10.87
2019-03-24T18:02:14.142Z,10.27
2019-03-24T18:04:38.899Z,13.60
2019-03-24T18:07:07.393Z,12.73
2019-03-24T18:09:35.821Z,11.10
2019-03-24T18:12:04.261Z,6.93
2019-03-24T18:14:32.704Z,8.63
2019-03-24T18:17:01.144Z,8.27
2019-03-24T18:19:29.577Z,10.87
2019-03-24T18:21:58.034Z,16.30
2019-03-24T18:24:26.474Z,16.07
2019-03-24T18:26:54.931Z,11.87
2019-03-24T18:29:23.388Z,11.57
2019-03-24T18:31:51.949Z,10.57
2019-03-24T18:34:20.470Z,12.10
2019-03-24T18:36:48.995Z,11.80
2019-03-24T18:39:17.483Z,8.23
2019-03-24T18:41:46.568Z,8.90
2019-03-24T18:44:15.001Z,10.70
2019-03-24T18:46:43.455Z,7.57
2019-03-24T18:49:11.903Z,12.80
2019-03-24T18:51:40.328Z,13.30
2019-03-24T18:54:08.774Z,9.33
2019-03-24T18:56:37.265Z,9.73
2019-03-24T18:59:05.716Z,12.33
2019-03-24T19:01:34.221Z,8.73
2019-03-24T19:04:02.707Z,10.97
2019-03-24T19:06:31.262Z,11.63
2019-03-24T19:08:59.745Z,13.27
2019-03-24T19:11:28.195Z,9.23
2019-03-24T19:13:56.616Z,7.13
2019-03-24T19:16:25.144Z,15.27
2019-03-24T19:18:53.588Z,11.50
2019-03-24T19:21:22.088Z,9.13
2019-03-24T19:23:50.526Z,10.67
2019-03-24T19:26:18.997Z,6.40
2019-03-24T19:28:47.449Z,8.53
2019-03-24T19:31:16.734Z,11.07
2019-03-24T19:33:45.167Z,8.23
2019-03-24T19:36:13.635Z,11.50
2019-03-24T19:38:42.213Z,9.27
2019-03-24T19:41:10.690Z,11.90
2019-03-24T19:43:39.891Z,12.60
2019-03-24T19:46:08.410Z,9.63
2019-03-24T19:48:36.842Z,10.03
2019-03-24T19:51:06.976Z,10.03
2019-03-24T19:53:35.493Z,7.40
2019-03-24T19:56:03.982Z,12.87
2019-03-24T19:58:32.428Z,11.03
2019-03-24T20:01:00.865Z,9.93
2019-03-24T20:03:29.300Z,8.50
2019-03-24T20:05:57.748Z,10.90
2019-03-24T20:08:26.184Z,7.17
2019-03-24T20:10:54.628Z,7.33
2019-03-24T20:13:23.082Z,8.37
2019-03-24T20:15:51.524Z,8.80
2019-03-24T20:18:20.035Z,8.97
2019-03-24T20:20:48.452Z,7.57
2019-03-24T20:23:16.903Z,8.43
2019-03-24T20:25:45.334Z,6.17
2019-03-24T20:28:13.795Z,12.17
2019-03-24T20:30:42.249Z,9.03
2019-03-24T20:33:10.711Z,7.57
2019-03-24T20:35:39.132Z,10.43
2019-03-24T20:38:07.699Z,10.00
2019-03-24T20:40:36.185Z,9.27
2019-03-24T20:43:04.628Z,10.67
2019-03-24T20:45:33.072Z,9.67
2019-03-24T20:48:01.524Z,6.73
2019-03-24T20:50:29.947Z,9.00
2019-03-24T20:53:04.035Z,11.33
2019-03-24T20:55:28.559Z,6.13
2019-03-24T20:57:57.016Z,6.53
2019-03-24T21:00:32.854Z,9.60
2019-03-24T21:03:01.313Z,10.30
2019-03-24T21:05:29.730Z,7.90
2019-03-24T21:07:58.176Z,6.20
2019-03-24T21:10:26.636Z,5.37
2019-03-24T21:12:55.062Z,11.80
2019-03-24T21:15:23.502Z,5.13
2019-03-24T21:17:51.963Z,9.93
2019-03-24T21:20:20.403Z,8.57
2019-03-24T21:22:48.836Z,7.13
2019-03-24T21:25:17.294Z,9.83
2019-03-24T21:27:45.736Z,6.40
2019-03-24T21:30:14.620Z,6.30
2019-03-24T21:32:43.060Z,6.13
2019-03-24T21:35:11.506Z,6.00
2019-03-24T21:37:39.939Z,10.47
2019-03-24T21:40:08.539Z,10.50
2019-03-24T21:42:36.971Z,6.97
2019-03-24T21:45:09.586Z,10.47
2019-03-24T21:47:38.024Z,7.70
2019-03-24T21:50:07.113Z,6.97
2019-03-24T21:52:35.554Z,5.80
2019-03-24T21:55:04.683Z,7.83
2019-03-24T21:57:33.490Z,7.53
2019-03-24T22:00:02.010Z,10.77
2019-03-24T22:02:30.443Z,12.43
2019-03-24T22:04:58.903Z,11.17
2019-03-24T22:07:27.339Z,12.97
2019-03-24T22:09:55.791Z,7.33
2019-03-24T22:12:24.213Z,11.73
2019-03-24T22:14:52.660Z,7.43
2019-03-24T22:17:21.084Z,8.40
2019-03-24T22:19:49.550Z,12.77
2019-03-24T22:22:17.983Z,8.67
2019-03-24T22:24:47.067Z,8.63
2019-03-24T22:27:15.495Z,8.33
2019-03-24T22:29:43.962Z,6.20
2019-03-24T22:32:12.403Z,11.50
2019-03-24T22:34:40.844Z,6.90
2019-03-24T22:37:15.911Z,11.13
2019-03-24T22:39:39.450Z,10.10
2019-03-24T22:42:07.911Z,11.03
2019-03-24T22:44:36.357Z,7.20
2019-03-24T22:47:04.772Z,7.63
2019-03-24T22:49:33.231Z,8.57
2019-03-24T22:52:07.158Z,7.73
2019-03-24T22:54:31.821Z,10.77
2019-03-24T22:57:00.307Z,6.17
2019-03-24T22:59:28.908Z,14.97
2019-03-24T23:01:57.364Z,10.27
2019-03-24T23:04:25.852Z,7.67
2019-03-24T23:06:54.277Z,10.27
2019-03-24T23:09:22.737Z,9.93
2019-03-24T23:11:51.245Z,9.60
2019-03-24T23:14:19.707Z,7.27
2019-03-24T23:16:48.127Z,10.63
2019-03-24T23:19:17.239Z,12.67
2019-03-24T23:21:45.648Z,8.43
2019-03-24T23:24:15.777Z,7.43
2019-03-24T23:26:44.348Z,8.40
2019-03-24T23:29:12.800Z,9.57
2019-03-24T23:31:41.220Z,7.03
2019-03-24T23:34:09.689Z,14.47
2019-03-24T23:36:38.204Z,10.53
2019-03-24T23:39:07.186Z,11.33
2019-03-24T23:41:35.671Z,10.40
2019-03-24T23:44:04.222Z,10.67
2019-03-24T23:46:32.721Z,14.50
2019-03-24T23:49:01.181Z,8.80
2019-03-24T23:51:29.702Z,9.93
2019-03-24T23:53:58.154Z,10.47
2019-03-24T23:56:26.588Z,9.37
2019-03-24T23:58:55.014Z,7.90
